Time;durP1;ratioP1;P1;durP2;ratioP2;P2;SDS_P1;SDS_P2;PMS_P1;PMS_P2;Temp;Humidity;BMP_temperature;BMP_pressure;BME280_temperature;BME280_humidity;BME280_pressure;Samples;Min_cycle;Max_cycle;Signal;HPM_P1;HPM_P2
2024/01/11 00:02:46;;;;;;;48.57;22.67;;;3.60;99.90;;;;;;10503156;28;20230;-83
2024/01/11 00:07:49;;;;;;;45.97;25.23;;;2.70;99.90;;;;;;10518190;28;20377;-84
2024/01/11 00:12:52;;;;;;;41.40;22.60;;;4.70;99.90;;;;;;10537141;28;20287;-84
2024/01/11 00:17:54;;;;;;;49.30;25.27;;;3.90;99.90;;;;;;10537314;28;20233;-84
2024/01/11 00:22:57;;;;;;;43.17;24.70;;;4.50;99.90;;;;;;10537274;28;20229;-84
2024/01/11 00:28:01;;;;;;;33.90;16.90;;;4.40;99.90;;;;;;10509282;28;20261;-84
2024/01/11 00:33:04;;;;;;;46.13;22.43;;;5.00;99.90;;;;;;10509467;28;20590;-84
2024/01/11 00:38:06;;;;;;;48.37;23.63;;;4.80;99.90;;;;;;10503861;28;20259;-84
2024/01/11 00:43:09;;;;;;;39.70;21.17;;;5.00;99.90;;;;;;10534735;28;20268;-84
2024/01/11 00:48:12;;;;;;;42.70;22.63;;;5.60;99.90;;;;;;10535321;28;20330;-84
2024/01/11 00:53:15;;;;;;;38.73;20.73;;;6.10;99.90;;;;;;10534113;28;20221;-84
2024/01/11 00:58:17;;;;;;;36.57;21.03;;;5.70;99.90;;;;;;10534916;28;20233;-84
2024/01/11 01:03:21;;;;;;;31.83;17.90;;;5.00;99.90;;;;;;10534316;28;20285;-84
2024/01/11 01:08:24;;;;;;;35.67;19.43;;;3.80;99.90;;;;;;10533814;28;20315;-84
2024/01/11 01:13:27;;;;;;;38.70;22.37;;;4.20;99.90;;;;;;10534732;28;20233;-84
2024/01/11 01:18:29;;;;;;;37.40;21.70;;;4.60;99.90;;;;;;10534597;28;20239;-84
2024/01/11 01:23:32;;;;;;;31.83;19.97;;;4.60;99.90;;;;;;10532992;28;20692;-84
2024/01/11 01:28:36;;;;;;;29.63;17.33;;;4.20;99.90;;;;;;10532150;28;20718;-84
2024/01/11 01:33:40;;;;;;;36.80;18.73;;;2.80;99.90;;;;;;10532819;28;20314;-84
2024/01/11 01:38:43;;;;;;;33.90;17.43;;;4.30;99.90;;;;;;10533055;28;20237;-84
2024/01/11 01:43:45;;;;;;;27.53;16.40;;;5.30;99.90;;;;;;10531610;28;20243;-84
2024/01/11 01:48:48;;;;;;;30.53;17.53;;;5.40;99.90;;;;;;10532783;28;20296;-84
2024/01/11 01:53:54;;;;;;;19.60;9.53;;;5.40;99.90;;;;;;10533106;28;20229;-84
2024/01/11 01:59:00;;;;;;;27.30;14.20;;;5.70;99.90;;;;;;10515198;28;20759;-84
2024/01/11 02:04:03;;;;;;;29.47;16.60;;;6.10;99.90;;;;;;10532711;28;20271;-84
2024/01/11 02:09:08;;;;;;;29.20;15.77;;;6.50;99.90;;;;;;10532982;28;20251;-84
2024/01/11 02:14:10;;;;;;;37.00;19.00;;;5.20;99.90;;;;;;10532125;28;20226;-84
2024/01/11 02:19:17;;;;;;;31.50;16.83;;;4.40;99.90;;;;;;10532197;28;20262;-84
2024/01/11 02:24:20;;;;;;;34.70;20.03;;;3.90;99.90;;;;;;10532797;28;20605;-84
2024/01/11 02:29:22;;;;;;;34.07;17.17;;;4.20;99.90;;;;;;10529760;28;20284;-84
2024/01/11 02:34:27;;;;;;;34.10;17.30;;;4.20;99.90;;;;;;10525238;28;20295;-84
2024/01/11 02:39:29;;;;;;;31.47;16.97;;;4.00;99.90;;;;;;10529973;28;20237;-84
2024/01/11 02:44:32;;;;;;;26.33;14.43;;;4.30;99.90;;;;;;10532288;28;20291;-84
2024/01/11 02:49:34;;;;;;;23.87;10.83;;;4.00;99.90;;;;;;10531309;28;20639;-84
2024/01/11 02:54:39;;;;;;;26.60;15.47;;;5.40;99.90;;;;;;10531360;28;20285;-84
2024/01/11 02:59:43;;;;;;;30.27;16.50;;;5.60;99.90;;;;;;10531827;28;20281;-84
2024/01/11 03:04:46;;;;;;;22.67;12.87;;;4.60;99.90;;;;;;10531758;28;20358;-84
2024/01/11 03:09:48;;;;;;;33.20;17.90;;;4.70;99.90;;;;;;10529840;28;20631;-84
2024/01/11 03:14:51;;;;;;;31.97;16.97;;;5.30;99.90;;;;;;10532982;28;20239;-84
2024/01/11 03:19:53;;;;;;;30.23;16.50;;;5.10;99.90;;;;;;10539467;28;20300;-84
2024/01/11 03:24:56;;;;;;;27.80;14.33;;;5.70;99.90;;;;;;10538445;28;20240;-84
2024/01/11 03:29:59;;;;;;;29.33;15.70;;;5.70;99.90;;;;;;10538679;28;20257;-84
2024/01/11 03:35:01;;;;;;;24.47;14.67;;;5.40;99.90;;;;;;10497404;28;20288;-84
2024/01/11 03:40:05;;;;;;;32.83;16.07;;;5.80;99.90;;;;;;10494854;28;20323;-84
2024/01/11 03:45:08;;;;;;;25.47;16.03;;;5.50;99.90;;;;;;10538933;28;20233;-84
2024/01/11 03:50:10;;;;;;;22.00;11.23;;;4.30;99.90;;;;;;10538346;28;20311;-84
2024/01/11 03:55:13;;;;;;;26.70;14.33;;;5.50;99.90;;;;;;10504328;28;20234;-84
2024/01/11 04:00:15;;;;;;;25.53;14.53;;;6.00;99.90;;;;;;10536498;28;20241;-84
2024/01/11 04:05:18;;;;;;;25.50;14.37;;;5.70;99.90;;;;;;10537586;28;20237;-84
2024/01/11 04:10:20;;;;;;;24.03;11.83;;;5.60;99.90;;;;;;10537149;28;20254;-84
2024/01/11 04:15:23;;;;;;;24.33;14.00;;;4.40;99.90;;;;;;10537498;28;20910;-84
2024/01/11 04:20:25;;;;;;;22.80;13.87;;;4.60;99.90;;;;;;10537188;28;20202;-84
2024/01/11 04:25:28;;;;;;;25.73;13.07;;;5.50;99.90;;;;;;10537072;28;20237;-84
2024/01/11 04:30:31;;;;;;;28.07;16.07;;;5.70;99.90;;;;;;10533004;28;20248;-84
2024/01/11 04:35:34;;;;;;;19.73;12.10;;;6.10;99.90;;;;;;10521219;28;20791;-84
2024/01/11 04:40:36;;;;;;;23.60;12.97;;;6.00;99.90;;;;;;10536513;28;20249;-84
2024/01/11 04:45:39;;;;;;;12.53;5.70;;;6.00;99.90;;;;;;10536206;28;20295;-84
2024/01/11 04:50:41;;;;;;;22.63;12.17;;;6.30;99.90;;;;;;10536393;28;20321;-84
2024/01/11 04:55:44;;;;;;;24.33;12.33;;;6.40;99.90;;;;;;10536748;28;20225;-84
2024/01/11 05:00:46;;;;;;;23.13;12.70;;;6.90;99.90;;;;;;10534963;28;20304;-83
2024/01/11 05:05:49;;;;;;;18.37;11.03;;;7.30;99.90;;;;;;10534962;28;20757;-84
2024/01/11 05:10:52;;;;;;;23.10;13.17;;;7.30;99.90;;;;;;10535063;28;20278;-84
2024/01/11 05:15:54;;;;;;;23.40;13.27;;;6.30;99.90;;;;;;10533632;28;20233;-84
2024/01/11 05:20:56;;;;;;;18.10;11.53;;;6.50;99.90;;;;;;10534715;28;20662;-84
2024/01/11 05:25:59;;;;;;;20.37;12.80;;;6.50;99.90;;;;;;10533563;28;20619;-84
2024/01/11 05:31:01;;;;;;;10.20;6.20;;;7.00;99.90;;;;;;10532934;28;20647;-84
2024/01/11 05:36:04;;;;;;;19.83;11.97;;;7.60;99.90;;;;;;10534566;28;20667;-84
2024/01/11 05:41:08;;;;;;;21.83;12.53;;;7.40;99.90;;;;;;10532239;28;20299;-84
2024/01/11 05:46:11;;;;;;;27.73;14.17;;;7.50;99.90;;;;;;10534251;28;20229;-84
2024/01/11 05:51:14;;;;;;;20.73;9.77;;;6.60;99.90;;;;;;10533931;28;20625;-84
2024/01/11 05:56:18;;;;;;;8.93;5.23;;;6.70;99.90;;;;;;10533679;28;20668;-84
2024/01/11 06:01:21;;;;;;;23.77;12.47;;;7.90;99.90;;;;;;10533909;28;20295;-83
2024/01/11 06:06:23;;;;;;;19.57;11.20;;;8.10;99.90;;;;;;10533756;28;20780;-84
2024/01/11 06:11:26;;;;;;;16.60;8.50;;;7.60;99.90;;;;;;10519453;28;20647;-83
2024/01/11 06:16:29;;;;;;;16.93;10.13;;;7.30;99.90;;;;;;10518462;28;20270;-82
2024/01/11 06:21:31;;;;;;;19.87;10.70;;;7.80;99.90;;;;;;10523375;28;20664;-81
2024/01/11 06:26:34;;;;;;;24.53;13.10;;;8.30;99.90;;;;;;10519277;28;20242;-81
2024/01/11 06:31:36;;;;;;;24.77;11.90;;;8.00;99.90;;;;;;10526655;28;20941;-81
2024/01/11 06:36:39;;;;;;;9.27;5.17;;;7.80;99.90;;;;;;10531310;28;20781;-83
2024/01/11 06:41:41;;;;;;;16.07;6.97;;;7.30;99.90;;;;;;10530408;28;20233;-82
2024/01/11 06:46:44;;;;;;;9.87;5.77;;;6.90;99.90;;;;;;10524695;28;20290;-82
2024/01/11 06:51:46;;;;;;;21.77;7.90;;;6.70;99.90;;;;;;10517323;28;20286;-88
2024/01/11 06:56:49;;;;;;;14.57;7.37;;;6.00;99.90;;;;;;10540211;28;20218;-88
2024/01/11 07:01:51;;;;;;;19.20;10.03;;;6.60;99.90;;;;;;10540789;28;20229;-87
2024/01/11 07:06:54;;;;;;;18.37;10.43;;;6.60;99.90;;;;;;10539944;28;20287;-88
2024/01/11 07:11:56;;;;;;;13.70;6.00;;;6.20;99.90;;;;;;10538885;28;20837;-88
2024/01/11 07:16:59;;;;;;;14.90;8.20;;;6.50;99.90;;;;;;10540080;28;20231;-88
2024/01/11 07:22:01;;;;;;;26.20;11.30;;;6.00;99.90;;;;;;10539782;28;20282;-88
2024/01/11 07:27:05;;;;;;;14.30;7.23;;;5.70;99.90;;;;;;10537868;28;20263;-88
2024/01/11 07:32:07;;;;;;;18.57;11.47;;;5.80;99.90;;;;;;10522838;28;20256;-88
2024/01/11 07:37:10;;;;;;;19.70;10.07;;;5.80;99.90;;;;;;10537065;28;20887;-89
2024/01/11 07:42:14;;;;;;;16.67;7.63;;;5.80;99.90;;;;;;10519955;28;20685;-89
2024/01/11 07:47:17;;;;;;;20.10;9.80;;;5.80;99.90;;;;;;10538029;28;20599;-88
2024/01/11 07:52:20;;;;;;;23.03;11.43;;;5.60;99.90;;;;;;10537633;28;20634;-89
2024/01/11 07:57:23;;;;;;;20.37;10.03;;;5.20;99.90;;;;;;10538482;28;20274;-88
2024/01/11 08:02:26;;;;;;;17.57;9.40;;;6.00;99.90;;;;;;10537943;28;20259;-88
2024/01/11 08:07:29;;;;;;;17.47;10.50;;;6.00;99.90;;;;;;10537852;28;20237;-88
2024/01/11 08:12:31;;;;;;;8.33;4.97;;;6.10;99.90;;;;;;10537024;28;20307;-88
2024/01/11 08:17:34;;;;;;;15.20;8.10;;;6.40;99.90;;;;;;10538152;28;20295;-88
2024/01/11 08:22:45;;;;;;;12.03;7.07;;;6.90;99.90;;;;;;10538238;28;20235;-89
2024/01/11 08:27:48;;;;;;;8.90;5.03;;;7.30;99.90;;;;;;10536506;28;20685;-87
2024/01/11 08:32:51;;;;;;;18.27;9.63;;;7.50;99.90;;;;;;10511885;28;20246;-88
2024/01/11 08:37:53;;;;;;;5.03;3.53;;;6.90;99.90;;;;;;10495381;28;20228;-88
2024/01/11 08:42:56;;;;;;;20.57;10.70;;;6.20;99.90;;;;;;10494575;28;20246;-88
2024/01/11 08:47:58;;;;;;;9.20;4.87;;;6.10;99.90;;;;;;10495130;28;20359;-87
2024/01/11 08:53:02;;;;;;;23.97;12.27;;;6.50;99.90;;;;;;10493581;28;20257;-87
2024/01/11 08:58:04;;;;;;;27.77;13.63;;;6.20;99.90;;;;;;10494264;28;20781;-87
2024/01/11 09:03:07;;;;;;;17.20;9.37;;;6.80;99.90;;;;;;10493169;28;20339;-87
2024/01/11 09:08:09;;;;;;;11.57;6.23;;;6.80;99.90;;;;;;10492455;28;20246;-87
2024/01/11 09:13:12;;;;;;;13.90;6.53;;;7.00;99.90;;;;;;10492728;28;20250;-87
2024/01/11 09:18:17;;;;;;;20.50;12.17;;;6.50;99.90;;;;;;10493409;28;20237;-87
2024/01/11 09:23:20;;;;;;;23.03;11.70;;;6.20;99.90;;;;;;10465723;28;20241;-87
2024/01/11 09:28:22;;;;;;;23.17;13.37;;;6.20;99.90;;;;;;10453247;28;20873;-87
2024/01/11 09:33:25;;;;;;;13.77;8.47;;;6.80;99.90;;;;;;10451600;28;20285;-87
2024/01/11 09:38:28;;;;;;;20.50;10.30;;;7.00;99.90;;;;;;10449479;28;20287;-87
2024/01/11 09:43:33;;;;;;;17.87;9.33;;;7.10;99.90;;;;;;10449949;28;20202;-87
2024/01/11 09:48:37;;;;;;;22.77;12.93;;;7.10;99.90;;;;;;10449491;28;20211;-87
2024/01/11 09:53:42;;;;;;;25.77;13.97;;;7.20;99.90;;;;;;10450703;28;20276;-87
2024/01/11 09:58:50;;;;;;;17.20;9.67;;;6.90;99.90;;;;;;10450336;28;20226;-87
2024/01/11 10:03:53;;;;;;;31.87;15.93;;;6.70;99.90;;;;;;10450142;28;20222;-87
2024/01/11 10:08:55;;;;;;;20.83;10.87;;;6.80;99.90;;;;;;10468775;28;20229;-87
2024/01/11 10:13:59;;;;;;;22.77;13.90;;;7.00;99.90;;;;;;10520049;28;20286;-87
2024/01/11 10:19:03;;;;;;;9.50;6.57;;;7.00;99.90;;;;;;10532833;28;20234;-87
2024/01/11 10:24:06;;;;;;;19.77;10.47;;;7.50;99.90;;;;;;10532038;28;20673;-87
2024/01/11 10:29:10;;;;;;;13.00;6.87;;;7.00;99.90;;;;;;10531036;28;20263;-87
2024/01/11 10:34:15;;;;;;;19.87;10.93;;;7.60;99.90;;;;;;10496572;28;20729;-87
2024/01/11 10:39:18;;;;;;;29.23;15.40;;;7.20;99.90;;;;;;10488779;28;20219;-87
2024/01/11 10:44:22;;;;;;;26.13;13.03;;;6.70;99.90;;;;;;10490437;28;20229;-87
2024/01/11 10:49:25;;;;;;;32.27;16.93;;;6.40;99.90;;;;;;10490255;28;20280;-87
2024/01/11 10:54:30;;;;;;;17.57;10.27;;;6.00;99.90;;;;;;10488685;28;20249;-87
2024/01/11 10:59:35;;;;;;;23.53;13.33;;;5.60;99.90;;;;;;10489921;28;20257;-87
2024/01/11 11:04:40;;;;;;;26.80;14.17;;;5.70;99.90;;;;;;10490452;28;20234;-87
2024/01/11 11:09:45;;;;;;;28.00;15.47;;;5.50;99.90;;;;;;10490010;28;20233;-87
2024/01/11 11:14:49;;;;;;;28.13;14.43;;;5.30;99.90;;;;;;10490198;28;20300;-88
2024/01/11 11:19:53;;;;;;;36.13;19.17;;;5.00;99.90;;;;;;10488706;28;20288;-87
2024/01/11 11:25:25;;;;;;;29.30;15.63;;;4.80;99.90;;;;;;10488957;28;20242;-87
2024/01/11 11:30:28;;;;;;;27.97;14.30;;;5.30;99.90;;;;;;10464231;28;20254;-87
2024/01/11 11:35:32;;;;;;;28.17;15.83;;;5.40;99.90;;;;;;10449563;28;20284;-88
2024/01/11 11:40:42;;;;;;;23.33;13.03;;;5.10;99.90;;;;;;10455338;28;20238;-87
2024/01/11 11:45:47;;;;;;;23.80;12.23;;;5.30;99.90;;;;;;10455313;28;20235;-87
2024/01/11 11:51:11;;;;;;;20.93;11.93;;;5.70;99.90;;;;;;10452916;28;20718;-87
2024/01/11 11:56:16;;;;;;;20.00;11.90;;;6.20;99.90;;;;;;10454757;28;20264;-87
2024/01/11 12:01:19;;;;;;;33.67;18.60;;;6.40;99.90;;;;;;10455153;28;20673;-87
2024/01/11 12:06:27;;;;;;;29.47;15.60;;;6.80;99.90;;;;;;10453289;28;20238;-87
2024/01/11 12:11:30;;;;;;;28.43;16.50;;;6.60;99.90;;;;;;10454735;28;20251;-87
2024/01/11 12:16:33;;;;;;;33.47;17.90;;;6.60;99.90;;;;;;10454614;28;20234;-87
2024/01/11 12:21:36;;;;;;;26.53;14.77;;;6.60;99.90;;;;;;10454302;28;20617;-87
2024/01/11 12:26:38;;;;;;;17.67;10.73;;;6.40;99.90;;;;;;10454021;28;20261;-88
2024/01/11 12:31:41;;;;;;;22.17;12.37;;;6.10;99.90;;;;;;10467352;28;20262;-87
2024/01/11 12:36:43;;;;;;;23.00;14.20;;;6.80;99.90;;;;;;10495099;28;20297;-87
2024/01/11 12:41:46;;;;;;;20.60;13.10;;;7.00;99.90;;;;;;10493073;28;20626;-87
2024/01/11 12:46:49;;;;;;;21.33;13.50;;;6.20;99.90;;;;;;10493552;28;20260;-88
2024/01/11 12:51:51;;;;;;;18.17;11.53;;;5.80;99.90;;;;;;10494495;28;20257;-88
2024/01/11 12:56:54;;;;;;;16.07;8.90;;;5.50;99.90;;;;;;10494037;28;20307;-87
2024/01/11 13:01:57;;;;;;;20.60;13.13;;;5.80;99.90;;;;;;10492729;28;20234;-87
2024/01/11 13:07:00;;;;;;;16.83;8.53;;;6.20;99.90;;;;;;10492177;28;20210;-87
2024/01/11 13:12:03;;;;;;;19.83;11.93;;;5.90;99.90;;;;;;10493225;28;20283;-88
2024/01/11 13:17:07;;;;;;;15.63;9.43;;;5.70;99.90;;;;;;10491548;28;20230;-88
2024/01/11 13:22:10;;;;;;;19.73;10.97;;;5.80;99.90;;;;;;10492261;28;20604;-88
2024/01/11 13:27:12;;;;;;;18.17;10.37;;;5.50;99.90;;;;;;10491725;28;20238;-87
2024/01/11 13:32:15;;;;;;;20.77;11.97;;;5.20;99.90;;;;;;10492194;28;20311;-89
2024/01/11 13:37:18;;;;;;;20.60;12.90;;;4.60;99.90;;;;;;10491891;28;20279;-87
2024/01/11 13:42:20;;;;;;;17.70;10.67;;;4.80;99.90;;;;;;10490206;28;20789;-87
2024/01/11 13:47:23;;;;;;;19.97;12.03;;;4.80;99.90;;;;;;10491108;28;20835;-87
2024/01/11 13:52:25;;;;;;;17.13;11.13;;;5.00;99.90;;;;;;10492533;28;20258;-88
2024/01/11 13:57:28;;;;;;;12.70;7.73;;;5.10;99.90;;;;;;10497461;28;20214;-86
2024/01/11 14:02:31;;;;;;;19.03;11.27;;;5.50;99.90;;;;;;10490924;28;20233;-87
2024/01/11 14:07:34;;;;;;;14.90;9.37;;;5.50;99.90;;;;;;10490461;28;20291;-88
2024/01/11 14:12:37;;;;;;;18.00;11.13;;;5.60;99.90;;;;;;10490148;28;20349;-88
2024/01/11 14:17:40;;;;;;;17.30;9.70;;;5.60;99.90;;;;;;10490455;28;20233;-87
2024/01/11 14:22:49;;;;;;;18.87;11.13;;;5.90;99.90;;;;;;10488981;28;20207;-87
2024/01/11 14:27:52;;;;;;;16.83;11.27;;;5.80;99.90;;;;;;10490463;28;20269;-87
2024/01/11 14:32:55;;;;;;;20.03;12.07;;;5.90;99.90;;;;;;10466913;28;20307;-87
2024/01/11 14:37:58;;;;;;;18.00;10.37;;;5.60;99.90;;;;;;10448709;28;20689;-87
2024/01/11 14:43:00;;;;;;;17.17;10.67;;;5.40;99.90;;;;;;10449422;28;20930;-88
2024/01/11 14:48:03;;;;;;;16.70;10.10;;;5.20;99.90;;;;;;10450383;28;20249;-87
2024/01/11 14:53:06;;;;;;;15.73;10.83;;;5.00;99.90;;;;;;10451585;28;20231;-87
2024/01/11 14:58:09;;;;;;;19.33;11.63;;;5.10;99.90;;;;;;10449332;28;20268;-87
2024/01/11 15:03:11;;;;;;;13.90;6.13;;;5.20;99.90;;;;;;10448989;28;20253;-87
2024/01/11 15:08:14;;;;;;;15.83;9.90;;;5.40;99.90;;;;;;10451158;28;20199;-87
2024/01/11 15:13:17;;;;;;;17.33;10.10;;;5.60;99.90;;;;;;10454582;28;21010;-87
2024/01/11 15:18:20;;;;;;;12.30;8.03;;;5.90;99.90;;;;;;10456176;28;20242;-84
2024/01/11 15:23:23;;;;;;;7.90;5.20;;;6.10;99.90;;;;;;10478992;28;20227;-83
2024/01/11 15:28:27;;;;;;;19.53;8.60;;;7.00;99.90;;;;;;10470875;28;20303;-83
2024/01/11 15:33:29;;;;;;;18.10;10.20;;;7.20;99.90;;;;;;10466516;28;20261;-82
2024/01/11 15:38:32;;;;;;;20.70;9.50;;;6.90;99.90;;;;;;10494562;28;20230;-82
2024/01/11 15:43:35;;;;;;;11.83;8.13;;;6.60;99.90;;;;;;10494934;28;20637;-82
2024/01/11 15:48:38;;;;;;;13.60;8.40;;;6.10;99.90;;;;;;10493860;28;20242;-82
2024/01/11 15:53:41;;;;;;;13.33;7.80;;;5.90;99.90;;;;;;10494300;28;20303;-82
2024/01/11 15:58:43;;;;;;;17.37;8.80;;;6.30;99.90;;;;;;10494674;28;20242;-82
2024/01/11 16:03:47;;;;;;;14.70;9.10;;;6.30;99.90;;;;;;10493844;28;20241;-82
2024/01/11 16:08:50;;;;;;;12.57;8.00;;;6.40;99.90;;;;;;10480104;28;20688;-82
2024/01/11 16:13:53;;;;;;;14.10;8.43;;;6.60;99.90;;;;;;10492030;28;20269;-82
2024/01/11 16:18:55;;;;;;;9.87;7.70;;;7.10;99.90;;;;;;10494515;28;20222;-82
2024/01/11 16:23:58;;;;;;;16.57;8.40;;;7.30;99.90;;;;;;10475773;28;20231;-81
2024/01/11 16:29:05;;;;;;;24.40;12.40;;;7.10;99.90;;;;;;10457437;28;20259;-86
2024/01/11 16:34:08;;;;;;;54.30;26.30;;;6.00;99.90;;;;;;10474846;28;20815;-88
2024/01/11 16:39:11;;;;;;;37.07;21.47;;;7.10;99.90;;;;;;10484070;28;20245;-89
2024/01/11 16:44:14;;;;;;;22.33;14.37;;;7.20;99.90;;;;;;10492725;28;20230;-88
2024/01/11 16:49:17;;;;;;;77.27;38.23;;;6.90;99.90;;;;;;10487199;28;20230;-89
2024/01/11 16:54:20;;;;;;;46.10;24.07;;;5.80;99.90;;;;;;10492075;28;20792;-89
2024/01/11 16:59:22;;;;;;;44.40;25.03;;;7.00;99.90;;;;;;10481621;28;20219;-89
2024/01/11 17:04:25;;;;;;;37.03;22.07;;;7.90;99.90;;;;;;10491587;28;20272;-89
2024/01/11 17:09:27;;;;;;;33.03;17.97;;;8.30;99.90;;;;;;10493320;28;20268;-89
2024/01/11 17:14:30;;;;;;;46.30;24.63;;;7.70;99.90;;;;;;10491406;28;20321;-88
2024/01/11 17:19:33;;;;;;;49.17;26.40;;;7.40;99.90;;;;;;10493578;28;20293;-89
2024/01/11 17:24:36;;;;;;;49.17;25.70;;;6.80;99.90;;;;;;10494029;28;20261;-89
2024/01/11 17:29:39;;;;;;;44.67;25.73;;;6.40;99.90;;;;;;10136528;28;9999964;-89
2024/01/11 17:34:42;;;;;;;54.43;26.90;;;6.60;99.90;;;;;;10488814;28;20307;-89
2024/01/11 17:39:44;;;;;;;34.93;20.37;;;6.70;99.90;;;;;;10486653;28;20264;-89
2024/01/11 17:44:47;;;;;;;63.73;31.33;;;6.90;99.90;;;;;;10469165;28;20276;-89
2024/01/11 17:49:50;;;;;;;63.43;33.23;;;6.50;99.90;;;;;;10490163;28;20293;-89
2024/01/11 17:54:53;;;;;;;53.43;26.77;;;7.20;99.90;;;;;;10449610;28;20254;-88
2024/01/11 17:59:55;;;;;;;40.80;23.13;;;7.10;99.90;;;;;;10473091;28;20675;-89
2024/01/11 18:04:58;;;;;;;33.03;19.27;;;7.20;99.90;;;;;;10487933;28;20229;-89
2024/01/11 18:10:02;;;;;;;18.40;13.07;;;6.30;99.90;;;;;;10469699;28;20731;-88
2024/01/11 18:15:05;;;;;;;44.30;22.90;;;5.30;99.90;;;;;;10486675;28;20253;-88
2024/01/11 18:20:08;;;;;;;30.17;18.70;;;4.70;99.90;;;;;;10466761;28;20235;-88
2024/01/11 18:25:12;;;;;;;34.77;20.83;;;4.70;99.90;;;;;;10472590;28;20295;-89
2024/01/11 18:30:15;;;;;;;33.03;21.00;;;4.70;99.90;;;;;;10464631;28;20272;-88
2024/01/11 18:35:17;;;;;;;21.87;14.20;;;5.20;99.90;;;;;;10491364;28;20265;-88
2024/01/11 18:40:22;;;;;;;26.53;16.30;;;4.60;99.90;;;;;;10488736;28;20249;-89
2024/01/11 18:45:27;;;;;;;21.07;14.37;;;4.10;99.90;;;;;;10488167;28;20593;-89
2024/01/11 18:50:29;;;;;;;45.20;32.50;;;3.80;99.90;;;;;;10494619;28;20687;-89
2024/01/11 18:55:31;;;;;;;34.53;28.30;;;3.40;99.90;;;;;;10495881;28;20279;-82
2024/01/11 19:00:34;;;;;;;35.23;22.07;;;2.60;99.90;;;;;;10487045;28;20272;-82
2024/01/11 19:05:39;;;;;;;32.20;22.30;;;1.70;99.90;;;;;;10471476;28;20266;-82
2024/01/11 19:10:42;;;;;;;42.27;25.80;;;1.30;99.90;;;;;;10483025;28;20732;-82
2024/01/11 19:15:48;;;;;;;38.87;24.43;;;1.00;99.90;;;;;;10495976;28;20315;-82
2024/01/11 19:20:53;;;;;;;32.57;16.97;;;0.90;99.90;;;;;;10495608;28;20425;-82
2024/01/11 19:25:57;;;;;;;37.17;19.17;;;1.00;99.90;;;;;;10483114;28;20237;-82
2024/01/11 19:31:00;;;;;;;37.17;18.33;;;1.50;99.90;;;;;;10494013;28;20655;-82
2024/01/11 19:36:04;;;;;;;33.07;19.07;;;2.20;99.90;;;;;;10494855;28;20721;-83
2024/01/11 19:41:06;;;;;;;34.67;16.87;;;2.60;99.90;;;;;;10493728;28;20747;-83
2024/01/11 19:46:16;;;;;;;34.60;19.40;;;3.00;99.90;;;;;;10494529;28;20678;-82
2024/01/11 19:51:18;;;;;;;37.47;17.87;;;3.30;99.90;;;;;;10495190;28;20283;-83
2024/01/11 19:56:22;;;;;;;39.87;20.90;;;3.10;99.90;;;;;;10474392;28;20258;-83
2024/01/11 20:01:24;;;;;;;35.50;21.87;;;3.20;99.90;;;;;;10486669;28;20234;-83
2024/01/11 20:06:27;;;;;;;61.23;34.50;;;1.80;99.90;;;;;;10487257;28;20270;-83
2024/01/11 20:11:30;;;;;;;72.03;35.43;;;1.20;99.90;;;;;;10492889;28;20264;-83
2024/01/11 20:16:32;;;;;;;63.37;33.73;;;0.80;99.90;;;;;;10481240;28;20261;-83
2024/01/11 20:21:35;;;;;;;68.60;35.17;;;0.70;99.90;;;;;;10482815;28;20234;-83
2024/01/11 20:26:38;;;;;;;60.20;32.77;;;0.60;99.90;;;;;;10493591;28;20271;-83
2024/01/11 20:31:40;;;;;;;50.20;32.87;;;0.60;99.90;;;;;;10485415;28;20316;-83
2024/01/11 20:36:43;;;;;;;42.57;25.07;;;0.50;99.90;;;;;;10489679;28;20282;-83
2024/01/11 20:41:45;;;;;;;40.67;22.60;;;0.50;99.90;;;;;;10488998;28;20230;-83
2024/01/11 20:46:48;;;;;;;61.23;33.23;;;0.50;99.90;;;;;;10487101;28;20754;-83
2024/01/11 20:51:52;;;;;;;43.10;23.17;;;0.50;99.90;;;;;;10482093;28;20244;-82
2024/01/11 20:56:55;;;;;;;69.03;41.43;;;0.50;99.90;;;;;;10491571;28;20252;-82
2024/01/11 21:01:58;;;;;;;55.43;27.67;;;0.50;99.90;;;;;;10483147;28;20231;-82
2024/01/11 21:07:02;;;;;;;66.37;33.00;;;0.40;99.90;;;;;;10485196;28;20267;-82
2024/01/11 21:12:05;;;;;;;37.63;21.60;;;0.50;99.90;;;;;;10479582;28;20236;-83
2024/01/11 21:17:08;;;;;;;41.17;22.80;;;0.50;99.90;;;;;;10486322;28;20706;-83
2024/01/11 21:22:11;;;;;;;39.20;22.37;;;0.50;99.90;;;;;;10477673;28;20633;-83
2024/01/11 21:27:14;;;;;;;34.73;19.50;;;0.40;99.90;;;;;;10488887;28;20638;-82
2024/01/11 21:32:17;;;;;;;33.23;20.43;;;0.30;99.90;;;;;;10491611;28;20611;-83
2024/01/11 21:37:20;;;;;;;38.60;21.47;;;0.10;99.90;;;;;;10491144;28;20325;-82
2024/01/11 21:42:23;;;;;;;60.80;37.83;;;0.00;99.90;;;;;;10490489;28;20632;-82
2024/01/11 21:47:25;;;;;;;42.43;25.00;;;-0.10;99.90;;;;;;10491018;28;20596;-82
2024/01/11 21:52:28;;;;;;;57.97;29.33;;;-0.30;99.90;;;;;;10490074;28;20675;-82
2024/01/11 21:57:31;;;;;;;48.20;27.80;;;-0.40;99.90;;;;;;10484453;28;20236;-82
2024/01/11 22:02:33;;;;;;;44.73;26.77;;;-0.40;99.90;;;;;;10472847;28;20222;-82
2024/01/11 22:07:36;;;;;;;42.07;26.33;;;-0.40;99.90;;;;;;10475069;28;20288;-82
2024/01/11 22:12:38;;;;;;;48.73;28.37;;;-0.50;99.90;;;;;;10474084;28;20684;-82
2024/01/11 22:17:41;;;;;;;43.17;25.37;;;-0.60;99.90;;;;;;10474624;28;20217;-82
2024/01/11 22:22:44;;;;;;;41.73;25.23;;;-0.80;99.90;;;;;;10475543;28;20226;-82
2024/01/11 22:27:47;;;;;;;47.07;27.37;;;-0.90;99.90;;;;;;10472335;28;20251;-82
2024/01/11 22:32:52;;;;;;;69.33;43.30;;;-0.80;99.90;;;;;;10477278;28;20206;-82
2024/01/11 22:37:55;;;;;;;90.77;44.00;;;-0.70;99.90;;;;;;10473749;28;20228;-82
2024/01/11 22:42:57;;;;;;;69.17;35.00;;;-0.70;99.90;;;;;;10472874;28;20646;-82
2024/01/11 22:48:00;;;;;;;60.67;31.37;;;-0.70;99.90;;;;;;10481153;28;20343;-82
2024/01/11 22:53:03;;;;;;;46.60;24.90;;;-0.80;99.90;;;;;;10465263;28;20242;-83
2024/01/11 22:58:05;;;;;;;46.90;27.23;;;-1.00;99.90;;;;;;10467225;28;20674;-81
2024/01/11 23:03:08;;;;;;;44.90;26.30;;;-1.10;99.90;;;;;;10467935;28;20223;-82
2024/01/11 23:08:10;;;;;;;102.03;38.90;;;-1.20;99.90;;;;;;10468429;28;20295;-82
2024/01/11 23:13:13;;;;;;;100.70;38.37;;;-1.10;99.90;;;;;;10465771;28;20293;-82
2024/01/11 23:18:16;;;;;;;63.50;28.07;;;-1.10;99.90;;;;;;10469255;28;20230;-82
2024/01/11 23:23:18;;;;;;;55.83;27.87;;;-1.10;99.90;;;;;;10466684;28;20298;-82
2024/01/11 23:28:22;;;;;;;189.50;84.17;;;-1.20;99.90;;;;;;10471055;28;20255;-81
2024/01/11 23:33:25;;;;;;;156.27;58.83;;;-1.40;99.90;;;;;;10462689;28;20671;-82
2024/01/11 23:38:28;;;;;;;97.73;40.33;;;-1.50;99.90;;;;;;10475617;28;20663;-81
2024/01/11 23:43:30;;;;;;;69.50;32.93;;;-1.70;99.90;;;;;;10472634;28;20226;-81
2024/01/11 23:48:33;;;;;;;54.67;21.57;;;-1.80;99.90;;;;;;10476342;28;20236;-82
2024/01/11 23:53:36;;;;;;;37.77;18.80;;;-1.80;99.90;;;;;;10478058;28;20237;-83
2024/01/11 23:58:40;;;;;;;32.33;13.80;;;-1.70;99.90;;;;;;10491606;28;20298;-83
